sensor_id;sensor_type;location;lat;lon;timestamp;temperature;humidity
871;DHT22;422;51.280;7.236;2023-10-08T00:00:44;17.60;1.00
871;DHT22;422;51.280;7.236;2023-10-08T00:03:15;17.60;1.00
871;DHT22;422;51.280;7.236;2023-10-08T00:05:43;17.60;1.00
871;DHT22;422;51.280;7.236;2023-10-08T00:08:13;17.50;1.00
871;DHT22;422;51.280;7.236;2023-10-08T00:10:43;17.50;1.00
871;DHT22;422;51.280;7.236;2023-10-08T00:13:11;17.50;1.00
871;DHT22;422;51.280;7.236;2023-10-08T00:15:39;17.50;3.50
871;DHT22;422;51.280;7.236;2023-10-08T00:18:10;17.50;1.00
871;DHT22;422;51.280;7.236;2023-10-08T00:20:38;17.40;1.00
871;DHT22;422;51.280;7.236;2023-10-08T00:23:22;17.40;1.00
871;DHT22;422;51.280;7.236;2023-10-08T00:25:51;17.40;1.00
871;DHT22;422;51.280;7.236;2023-10-08T00:28:18;17.30;17.20
871;DHT22;422;51.280;7.236;2023-10-08T00:30:47;17.40;29.40
871;DHT22;422;51.280;7.236;2023-10-08T00:33:15;17.40;20.80
871;DHT22;422;51.280;7.236;2023-10-08T00:35:42;17.40;27.90
871;DHT22;422;51.280;7.236;2023-10-08T00:38:11;17.40;8.40
871;DHT22;422;51.280;7.236;2023-10-08T00:40:43;17.40;15.60
871;DHT22;422;51.280;7.236;2023-10-08T00:45:54;17.40;40.00
871;DHT22;422;51.280;7.236;2023-10-08T00:48:25;17.40;13.00
871;DHT22;422;51.280;7.236;2023-10-08T00:50:54;17.30;52.80
871;DHT22;422;51.280;7.236;2023-10-08T00:53:35;17.30;49.90
871;DHT22;422;51.280;7.236;2023-10-08T00:56:07;17.30;58.30
871;DHT22;422;51.280;7.236;2023-10-08T00:58:40;17.30;80.10
871;DHT22;422;51.280;7.236;2023-10-08T01:01:12;17.30;84.40
871;DHT22;422;51.280;7.236;2023-10-08T01:03:42;17.20;95.00
871;DHT22;422;51.280;7.236;2023-10-08T01:06:11;17.30;99.90
871;DHT22;422;51.280;7.236;2023-10-08T01:08:38;17.30;99.90
871;DHT22;422;51.280;7.236;2023-10-08T01:11:22;17.20;99.90
871;DHT22;422;51.280;7.236;2023-10-08T01:14:10;17.10;99.90
871;DHT22;422;51.280;7.236;2023-10-08T01:16:37;17.20;99.90
871;DHT22;422;51.280;7.236;2023-10-08T01:19:07;17.20;99.90
871;DHT22;422;51.280;7.236;2023-10-08T01:21:39;17.20;99.90
871;DHT22;422;51.280;7.236;2023-10-08T01:24:08;17.10;99.90
871;DHT22;422;51.280;7.236;2023-10-08T01:26:42;17.00;99.90
871;DHT22;422;51.280;7.236;2023-10-08T01:29:13;17.00;99.90
871;DHT22;422;51.280;7.236;2023-10-08T01:31:46;17.00;99.90
871;DHT22;422;51.280;7.236;2023-10-08T01:34:14;17.00;99.90
871;DHT22;422;51.280;7.236;2023-10-08T01:36:42;17.00;99.90
871;DHT22;422;51.280;7.236;2023-10-08T01:39:12;16.90;99.90
871;DHT22;422;51.280;7.236;2023-10-08T01:41:47;16.90;99.90
871;DHT22;422;51.280;7.236;2023-10-08T01:44:16;16.80;99.90
871;DHT22;422;51.280;7.236;2023-10-08T01:46:44;16.80;99.90
871;DHT22;422;51.280;7.236;2023-10-08T01:49:15;16.80;99.90
871;DHT22;422;51.280;7.236;2023-10-08T01:51:47;16.70;99.90
871;DHT22;422;51.280;7.236;2023-10-08T01:54:16;16.70;99.90
871;DHT22;422;51.280;7.236;2023-10-08T01:56:47;16.60;99.90
871;DHT22;422;51.280;7.236;2023-10-08T01:59:16;16.70;99.90
871;DHT22;422;51.280;7.236;2023-10-08T02:01:43;16.60;99.90
871;DHT22;422;51.280;7.236;2023-10-08T02:04:11;16.60;99.90
871;DHT22;422;51.280;7.236;2023-10-08T02:06:40;16.60;99.90
871;DHT22;422;51.280;7.236;2023-10-08T02:09:07;16.70;99.90
871;DHT22;422;51.280;7.236;2023-10-08T02:11:44;16.70;99.90
871;DHT22;422;51.280;7.236;2023-10-08T02:14:12;16.70;99.90
871;DHT22;422;51.280;7.236;2023-10-08T02:16:42;16.70;99.90
871;DHT22;422;51.280;7.236;2023-10-08T02:19:09;16.70;99.90
871;DHT22;422;51.280;7.236;2023-10-08T02:21:37;16.70;99.90
871;DHT22;422;51.280;7.236;2023-10-08T02:24:10;16.70;99.90
871;DHT22;422;51.280;7.236;2023-10-08T02:26:37;16.70;99.90
871;DHT22;422;51.280;7.236;2023-10-08T02:29:07;16.70;99.90
871;DHT22;422;51.280;7.236;2023-10-08T02:31:37;16.70;99.90
871;DHT22;422;51.280;7.236;2023-10-08T02:34:07;16.60;99.90
871;DHT22;422;51.280;7.236;2023-10-08T02:36:35;16.60;99.90
871;DHT22;422;51.280;7.236;2023-10-08T02:39:03;16.60;99.90
871;DHT22;422;51.280;7.236;2023-10-08T02:41:33;16.50;99.90
871;DHT22;422;51.280;7.236;2023-10-08T02:44:00;16.50;99.90
871;DHT22;422;51.280;7.236;2023-10-08T02:46:32;16.40;99.90
871;DHT22;422;51.280;7.236;2023-10-08T02:49:04;16.40;99.90
871;DHT22;422;51.280;7.236;2023-10-08T02:51:32;16.50;99.90
871;DHT22;422;51.280;7.236;2023-10-08T02:53:59;16.40;99.90
871;DHT22;422;51.280;7.236;2023-10-08T02:56:26;16.40;99.90
871;DHT22;422;51.280;7.236;2023-10-08T02:58:57;16.40;99.90
871;DHT22;422;51.280;7.236;2023-10-08T03:01:26;16.30;99.90
871;DHT22;422;51.280;7.236;2023-10-08T03:03:55;16.30;99.90
871;DHT22;422;51.280;7.236;2023-10-08T03:06:29;16.30;99.90
871;DHT22;422;51.280;7.236;2023-10-08T03:08:58;16.30;99.90
871;DHT22;422;51.280;7.236;2023-10-08T03:11:30;16.20;99.90
871;DHT22;422;51.280;7.236;2023-10-08T03:13:58;16.20;99.90
871;DHT22;422;51.280;7.236;2023-10-08T03:16:25;16.20;99.90
871;DHT22;422;51.280;7.236;2023-10-08T03:19:01;16.10;99.90
871;DHT22;422;51.280;7.236;2023-10-08T03:21:31;16.10;99.90
871;DHT22;422;51.280;7.236;2023-10-08T03:24:16;16.00;99.90
871;DHT22;422;51.280;7.236;2023-10-08T03:27:06;16.10;99.90
871;DHT22;422;51.280;7.236;2023-10-08T03:29:38;16.00;99.90
871;DHT22;422;51.280;7.236;2023-10-08T03:32:08;16.10;99.90
871;DHT22;422;51.280;7.236;2023-10-08T03:34:44;16.10;99.90
871;DHT22;422;51.280;7.236;2023-10-08T03:37:12;16.10;99.90
871;DHT22;422;51.280;7.236;2023-10-08T03:39:46;16.00;99.90
871;DHT22;422;51.280;7.236;2023-10-08T03:42:26;16.00;99.90
871;DHT22;422;51.280;7.236;2023-10-08T03:45:00;16.00;99.90
871;DHT22;422;51.280;7.236;2023-10-08T03:47:38;15.90;99.90
871;DHT22;422;51.280;7.236;2023-10-08T03:50:08;15.90;1.00
871;DHT22;422;51.280;7.236;2023-10-08T03:52:42;15.90;1.00
871;DHT22;422;51.280;7.236;2023-10-08T03:55:10;15.80;1.00
871;DHT22;422;51.280;7.236;2023-10-08T03:57:47;15.90;1.00
871;DHT22;422;51.280;7.236;2023-10-08T04:00:22;15.90;99.90
871;DHT22;422;51.280;7.236;2023-10-08T04:02:57;15.90;99.90
871;DHT22;422;51.280;7.236;2023-10-08T04:05:35;15.90;99.90
871;DHT22;422;51.280;7.236;2023-10-08T04:08:10;16.00;99.90
871;DHT22;422;51.280;7.236;2023-10-08T04:10:52;16.00;99.90
871;DHT22;422;51.280;7.236;2023-10-08T04:13:54;16.10;99.90
871;DHT22;422;51.280;7.236;2023-10-08T04:16:25;15.90;99.90
871;DHT22;422;51.280;7.236;2023-10-08T04:18:53;15.80;99.90
871;DHT22;422;51.280;7.236;2023-10-08T04:21:23;15.80;99.90
871;DHT22;422;51.280;7.236;2023-10-08T04:23:53;15.90;99.90
871;DHT22;422;51.280;7.236;2023-10-08T04:26:23;15.90;99.90
871;DHT22;422;51.280;7.236;2023-10-08T04:28:51;15.80;99.90
871;DHT22;422;51.280;7.236;2023-10-08T04:31:23;15.90;99.90
871;DHT22;422;51.280;7.236;2023-10-08T04:33:54;15.90;99.90
871;DHT22;422;51.280;7.236;2023-10-08T04:36:23;15.90;99.90
871;DHT22;422;51.280;7.236;2023-10-08T04:38:50;16.00;99.90
871;DHT22;422;51.280;7.236;2023-10-08T04:41:21;16.00;99.90
871;DHT22;422;51.280;7.236;2023-10-08T04:43:53;15.90;99.90
871;DHT22;422;51.280;7.236;2023-10-08T04:46:21;16.00;99.90
871;DHT22;422;51.280;7.236;2023-10-08T04:49:12;15.90;99.90
871;DHT22;422;51.280;7.236;2023-10-08T04:51:56;15.90;99.90
871;DHT22;422;51.280;7.236;2023-10-08T04:54:25;15.90;99.90
871;DHT22;422;51.280;7.236;2023-10-08T04:56:56;15.90;99.90
871;DHT22;422;51.280;7.236;2023-10-08T04:59:25;15.90;99.90
871;DHT22;422;51.280;7.236;2023-10-08T05:01:59;15.90;99.90
871;DHT22;422;51.280;7.236;2023-10-08T05:04:59;15.90;99.90
871;DHT22;422;51.280;7.236;2023-10-08T05:07:50;15.80;99.90
871;DHT22;422;51.280;7.236;2023-10-08T05:10:34;15.80;99.90
871;DHT22;422;51.280;7.236;2023-10-08T05:13:19;15.70;99.90
871;DHT22;422;51.280;7.236;2023-10-08T05:15:56;15.70;99.90
871;DHT22;422;51.280;7.236;2023-10-08T05:18:37;15.70;99.90
871;DHT22;422;51.280;7.236;2023-10-08T05:21:22;15.60;99.90
871;DHT22;422;51.280;7.236;2023-10-08T05:23:56;15.70;99.90
871;DHT22;422;51.280;7.236;2023-10-08T05:26:39;15.60;99.90
871;DHT22;422;51.280;7.236;2023-10-08T05:29:15;15.60;99.90
871;DHT22;422;51.280;7.236;2023-10-08T05:31:59;15.60;99.90
871;DHT22;422;51.280;7.236;2023-10-08T05:34:40;15.60;99.90
871;DHT22;422;51.280;7.236;2023-10-08T05:37:22;15.50;99.90
871;DHT22;422;51.280;7.236;2023-10-08T05:40:06;15.60;99.90
871;DHT22;422;51.280;7.236;2023-10-08T05:42:46;15.60;99.90
871;DHT22;422;51.280;7.236;2023-10-08T05:45:15;15.60;99.90
871;DHT22;422;51.280;7.236;2023-10-08T05:47:55;15.70;99.90
871;DHT22;422;51.280;7.236;2023-10-08T05:50:39;15.70;99.90
871;DHT22;422;51.280;7.236;2023-10-08T05:53:09;15.80;99.90
871;DHT22;422;51.280;7.236;2023-10-08T05:56:06;15.80;99.90
871;DHT22;422;51.280;7.236;2023-10-08T05:58:53;15.80;99.90
871;DHT22;422;51.280;7.236;2023-10-08T06:01:41;15.80;99.90
871;DHT22;422;51.280;7.236;2023-10-08T06:04:08;15.80;99.90
871;DHT22;422;51.280;7.236;2023-10-08T06:06:52;15.80;99.90
871;DHT22;422;51.280;7.236;2023-10-08T06:09:38;15.70;99.90
871;DHT22;422;51.280;7.236;2023-10-08T06:12:07;15.70;99.90
871;DHT22;422;51.280;7.236;2023-10-08T06:14:45;15.70;99.90
871;DHT22;422;51.280;7.236;2023-10-08T06:17:29;15.60;99.90
871;DHT22;422;51.280;7.236;2023-10-08T06:20:13;15.60;99.90
871;DHT22;422;51.280;7.236;2023-10-08T06:22:42;15.60;99.90
871;DHT22;422;51.280;7.236;2023-10-08T06:25:10;15.60;99.90
871;DHT22;422;51.280;7.236;2023-10-08T06:27:45;15.60;99.90
871;DHT22;422;51.280;7.236;2023-10-08T06:30:13;15.60;99.90
871;DHT22;422;51.280;7.236;2023-10-08T06:32:43;15.60;99.90
871;DHT22;422;51.280;7.236;2023-10-08T06:35:11;15.70;99.90
871;DHT22;422;51.280;7.236;2023-10-08T06:37:44;15.70;99.90
871;DHT22;422;51.280;7.236;2023-10-08T06:40:11;15.70;99.90
871;DHT22;422;51.280;7.236;2023-10-08T06:43:01;15.80;99.90
871;DHT22;422;51.280;7.236;2023-10-08T06:45:40;15.80;99.90
871;DHT22;422;51.280;7.236;2023-10-08T06:48:07;15.70;99.90
871;DHT22;422;51.280;7.236;2023-10-08T06:50:35;15.70;99.90
871;DHT22;422;51.280;7.236;2023-10-08T06:53:03;15.80;99.90
871;DHT22;422;51.280;7.236;2023-10-08T06:55:34;15.80;99.90
871;DHT22;422;51.280;7.236;2023-10-08T06:58:03;15.80;99.90
871;DHT22;422;51.280;7.236;2023-10-08T07:00:35;15.80;99.90
871;DHT22;422;51.280;7.236;2023-10-08T07:03:08;15.80;99.90
871;DHT22;422;51.280;7.236;2023-10-08T07:05:37;15.80;99.90
871;DHT22;422;51.280;7.236;2023-10-08T07:08:10;15.70;99.90
871;DHT22;422;51.280;7.236;2023-10-08T07:10:41;15.70;99.90
871;DHT22;422;51.280;7.236;2023-10-08T07:13:10;15.70;99.90
871;DHT22;422;51.280;7.236;2023-10-08T07:15:37;15.80;99.90
871;DHT22;422;51.280;7.236;2023-10-08T07:18:06;15.90;99.90
871;DHT22;422;51.280;7.236;2023-10-08T07:20:40;16.00;99.90
871;DHT22;422;51.280;7.236;2023-10-08T07:23:08;16.10;99.90
871;DHT22;422;51.280;7.236;2023-10-08T07:25:54;16.00;99.90
871;DHT22;422;51.280;7.236;2023-10-08T07:28:32;16.10;99.90
871;DHT22;422;51.280;7.236;2023-10-08T07:30:59;16.10;99.90
871;DHT22;422;51.280;7.236;2023-10-08T07:33:28;16.10;99.90
871;DHT22;422;51.280;7.236;2023-10-08T07:36:02;16.00;99.90
871;DHT22;422;51.280;7.236;2023-10-08T07:38:38;16.00;99.90
871;DHT22;422;51.280;7.236;2023-10-08T07:41:08;16.00;99.90
871;DHT22;422;51.280;7.236;2023-10-08T07:43:39;16.10;99.90
871;DHT22;422;51.280;7.236;2023-10-08T07:46:08;16.00;99.90
871;DHT22;422;51.280;7.236;2023-10-08T07:48:36;15.90;99.90
871;DHT22;422;51.280;7.236;2023-10-08T07:51:08;15.80;99.90
871;DHT22;422;51.280;7.236;2023-10-08T07:53:35;15.90;99.90
871;DHT22;422;51.280;7.236;2023-10-08T07:56:05;16.00;99.90
871;DHT22;422;51.280;7.236;2023-10-08T07:58:34;16.10;99.90
871;DHT22;422;51.280;7.236;2023-10-08T08:01:05;16.20;99.90
871;DHT22;422;51.280;7.236;2023-10-08T08:03:33;16.20;99.90
871;DHT22;422;51.280;7.236;2023-10-08T08:06:03;16.10;99.90
871;DHT22;422;51.280;7.236;2023-10-08T08:08:32;16.30;99.90
871;DHT22;422;51.280;7.236;2023-10-08T08:10:59;16.30;99.90
871;DHT22;422;51.280;7.236;2023-10-08T08:13:32;16.30;99.90
871;DHT22;422;51.280;7.236;2023-10-08T08:16:01;16.70;99.90
871;DHT22;422;51.280;7.236;2023-10-08T08:18:43;17.10;99.90
871;DHT22;422;51.280;7.236;2023-10-08T08:21:11;17.10;99.90
871;DHT22;422;51.280;7.236;2023-10-08T08:23:44;16.90;99.90
871;DHT22;422;51.280;7.236;2023-10-08T08:26:14;16.80;99.90
871;DHT22;422;51.280;7.236;2023-10-08T08:28:53;16.90;99.90
871;DHT22;422;51.280;7.236;2023-10-08T08:31:23;16.70;99.90
871;DHT22;422;51.280;7.236;2023-10-08T08:33:52;16.50;99.90
871;DHT22;422;51.280;7.236;2023-10-08T08:36:22;16.20;99.90
871;DHT22;422;51.280;7.236;2023-10-08T08:38:50;16.10;99.90
871;DHT22;422;51.280;7.236;2023-10-08T08:41:18;16.20;99.90
871;DHT22;422;51.280;7.236;2023-10-08T08:43:50;16.10;99.90
871;DHT22;422;51.280;7.236;2023-10-08T08:46:27;16.10;1.00
871;DHT22;422;51.280;7.236;2023-10-08T08:49:00;16.20;1.00
871;DHT22;422;51.280;7.236;2023-10-08T08:51:30;16.20;1.00
871;DHT22;422;51.280;7.236;2023-10-08T08:53:57;16.30;1.00
871;DHT22;422;51.280;7.236;2023-10-08T08:56:26;16.40;1.00
871;DHT22;422;51.280;7.236;2023-10-08T08:58:57;16.50;1.00
871;DHT22;422;51.280;7.236;2023-10-08T09:01:26;16.60;1.00
871;DHT22;422;51.280;7.236;2023-10-08T09:04:00;16.70;1.00
871;DHT22;422;51.280;7.236;2023-10-08T09:06:32;16.80;1.00
871;DHT22;422;51.280;7.236;2023-10-08T09:09:00;16.80;1.00
871;DHT22;422;51.280;7.236;2023-10-08T09:11:47;16.90;99.90
871;DHT22;422;51.280;7.236;2023-10-08T09:14:19;16.60;99.90
871;DHT22;422;51.280;7.236;2023-10-08T09:16:47;16.50;1.00
871;DHT22;422;51.280;7.236;2023-10-08T09:19:15;16.70;1.00
871;DHT22;422;51.280;7.236;2023-10-08T09:21:59;16.60;99.90
871;DHT22;422;51.280;7.236;2023-10-08T09:24:27;16.70;99.90
871;DHT22;422;51.280;7.236;2023-10-08T09:26:55;16.80;99.90
871;DHT22;422;51.280;7.236;2023-10-08T09:29:24;16.50;1.00
871;DHT22;422;51.280;7.236;2023-10-08T09:31:53;16.40;1.00
871;DHT22;422;51.280;7.236;2023-10-08T09:34:33;16.70;1.00
871;DHT22;422;51.280;7.236;2023-10-08T09:37:02;16.80;1.00
871;DHT22;422;51.280;7.236;2023-10-08T09:39:30;16.90;99.90
871;DHT22;422;51.280;7.236;2023-10-08T09:42:02;16.90;99.90
871;DHT22;422;51.280;7.236;2023-10-08T09:44:32;16.80;99.90
871;DHT22;422;51.280;7.236;2023-10-08T09:47:06;16.70;99.90
871;DHT22;422;51.280;7.236;2023-10-08T09:49:48;16.70;99.90
871;DHT22;422;51.280;7.236;2023-10-08T09:52:29;16.60;99.90
871;DHT22;422;51.280;7.236;2023-10-08T09:55:01;16.40;1.00
871;DHT22;422;51.280;7.236;2023-10-08T09:57:29;16.30;1.00
871;DHT22;422;51.280;7.236;2023-10-08T09:59:59;16.20;1.00
871;DHT22;422;51.280;7.236;2023-10-08T10:02:27;15.90;1.00
871;DHT22;422;51.280;7.236;2023-10-08T10:05:02;15.80;1.00
871;DHT22;422;51.280;7.236;2023-10-08T10:07:31;15.90;1.00
871;DHT22;422;51.280;7.236;2023-10-08T10:10:01;15.90;1.00
871;DHT22;422;51.280;7.236;2023-10-08T10:12:39;16.00;1.00
871;DHT22;422;51.280;7.236;2023-10-08T10:15:11;16.00;1.00
871;DHT22;422;51.280;7.236;2023-10-08T10:17:39;16.00;1.00
871;DHT22;422;51.280;7.236;2023-10-08T10:20:09;16.10;1.00
871;DHT22;422;51.280;7.236;2023-10-08T10:22:39;16.20;1.00
871;DHT22;422;51.280;7.236;2023-10-08T10:25:09;16.30;99.90
871;DHT22;422;51.280;7.236;2023-10-08T10:27:44;16.50;99.90
871;DHT22;422;51.280;7.236;2023-10-08T10:30:35;16.60;99.90
871;DHT22;422;51.280;7.236;2023-10-08T10:33:03;16.80;99.90
871;DHT22;422;51.280;7.236;2023-10-08T10:35:35;16.90;99.90
871;DHT22;422;51.280;7.236;2023-10-08T10:38:06;17.00;99.90
871;DHT22;422;51.280;7.236;2023-10-08T10:40:33;16.90;99.90
871;DHT22;422;51.280;7.236;2023-10-08T10:43:06;16.80;99.90
871;DHT22;422;51.280;7.236;2023-10-08T10:45:35;16.80;99.90
871;DHT22;422;51.280;7.236;2023-10-08T10:48:02;16.90;99.90
871;DHT22;422;51.280;7.236;2023-10-08T10:50:40;16.90;99.90
871;DHT22;422;51.280;7.236;2023-10-08T10:53:17;16.80;99.90
871;DHT22;422;51.280;7.236;2023-10-08T10:55:43;17.00;99.90
871;DHT22;422;51.280;7.236;2023-10-08T10:58:27;17.00;99.90
871;DHT22;422;51.280;7.236;2023-10-08T11:00:54;17.20;99.90
871;DHT22;422;51.280;7.236;2023-10-08T11:03:25;17.40;99.90
871;DHT22;422;51.280;7.236;2023-10-08T11:06:00;17.60;45.20
871;DHT22;422;51.280;7.236;2023-10-08T11:08:32;17.50;1.00
871;DHT22;422;51.280;7.236;2023-10-08T11:11:02;17.50;1.00
871;DHT22;422;51.280;7.236;2023-10-08T11:13:34;17.30;7.10
871;DHT22;422;51.280;7.236;2023-10-08T11:16:05;17.00;1.00
871;DHT22;422;51.280;7.236;2023-10-08T11:18:35;16.80;99.90
871;DHT22;422;51.280;7.236;2023-10-08T11:21:09;16.80;99.90
871;DHT22;422;51.280;7.236;2023-10-08T11:23:51;16.70;99.90
871;DHT22;422;51.280;7.236;2023-10-08T11:26:25;16.70;95.00
871;DHT22;422;51.280;7.236;2023-10-08T11:29:01;16.60;99.90
871;DHT22;422;51.280;7.236;2023-10-08T11:31:31;16.70;99.90
871;DHT22;422;51.280;7.236;2023-10-08T11:34:00;16.80;99.90
871;DHT22;422;51.280;7.236;2023-10-08T11:36:36;17.00;99.90
871;DHT22;422;51.280;7.236;2023-10-08T11:39:14;17.20;99.90
871;DHT22;422;51.280;7.236;2023-10-08T11:41:56;17.40;47.50
871;DHT22;422;51.280;7.236;2023-10-08T11:44:23;17.60;15.00
871;DHT22;422;51.280;7.236;2023-10-08T11:46:56;17.70;1.00
871;DHT22;422;51.280;7.236;2023-10-08T11:49:30;17.70;1.00
871;DHT22;422;51.280;7.236;2023-10-08T11:52:03;17.80;1.00
871;DHT22;422;51.280;7.236;2023-10-08T11:54:31;17.60;1.00
871;DHT22;422;51.280;7.236;2023-10-08T11:57:00;17.80;1.00
871;DHT22;422;51.280;7.236;2023-10-08T11:59:29;17.80;1.00
871;DHT22;422;51.280;7.236;2023-10-08T12:01:58;17.80;1.00
871;DHT22;422;51.280;7.236;2023-10-08T12:04:25;18.00;1.00
871;DHT22;422;51.280;7.236;2023-10-08T12:06:55;18.00;1.00
871;DHT22;422;51.280;7.236;2023-10-08T12:09:24;18.00;1.00
871;DHT22;422;51.280;7.236;2023-10-08T12:11:54;18.10;1.00
871;DHT22;422;51.280;7.236;2023-10-08T12:14:22;18.30;1.00
871;DHT22;422;51.280;7.236;2023-10-08T12:16:56;18.50;1.00
871;DHT22;422;51.280;7.236;2023-10-08T12:19:26;18.60;1.00
871;DHT22;422;51.280;7.236;2023-10-08T12:21:58;18.70;1.00
871;DHT22;422;51.280;7.236;2023-10-08T12:24:30;18.80;1.00
871;DHT22;422;51.280;7.236;2023-10-08T12:26:57;18.60;1.00
871;DHT22;422;51.280;7.236;2023-10-08T12:29:26;18.60;1.00
871;DHT22;422;51.280;7.236;2023-10-08T12:31:54;18.50;1.00
871;DHT22;422;51.280;7.236;2023-10-08T12:34:22;18.40;1.00
871;DHT22;422;51.280;7.236;2023-10-08T12:36:50;18.50;1.00
871;DHT22;422;51.280;7.236;2023-10-08T12:39:18;18.50;1.00
871;DHT22;422;51.280;7.236;2023-10-08T12:41:53;18.40;1.00
871;DHT22;422;51.280;7.236;2023-10-08T12:44:20;18.40;1.00
871;DHT22;422;51.280;7.236;2023-10-08T12:46:50;18.40;1.00
871;DHT22;422;51.280;7.236;2023-10-08T12:49:17;18.50;1.00
871;DHT22;422;51.280;7.236;2023-10-08T12:51:47;18.50;1.00
871;DHT22;422;51.280;7.236;2023-10-08T12:54:14;18.50;1.00
871;DHT22;422;51.280;7.236;2023-10-08T12:56:48;18.50;1.00
871;DHT22;422;51.280;7.236;2023-10-08T12:59:17;18.50;1.00
871;DHT22;422;51.280;7.236;2023-10-08T13:01:48;18.50;1.00
871;DHT22;422;51.280;7.236;2023-10-08T13:04:17;18.40;1.00
871;DHT22;422;51.280;7.236;2023-10-08T13:06:52;18.40;1.00
871;DHT22;422;51.280;7.236;2023-10-08T13:09:23;18.40;1.00
871;DHT22;422;51.280;7.236;2023-10-08T13:11:50;18.40;1.00
871;DHT22;422;51.280;7.236;2023-10-08T13:14:19;18.30;1.00
871;DHT22;422;51.280;7.236;2023-10-08T13:16:49;18.30;1.00
871;DHT22;422;51.280;7.236;2023-10-08T13:19:19;18.40;1.00
871;DHT22;422;51.280;7.236;2023-10-08T13:21:49;18.20;1.00
871;DHT22;422;51.280;7.236;2023-10-08T13:24:18;18.20;1.00
871;DHT22;422;51.280;7.236;2023-10-08T13:26:46;17.80;1.00
871;DHT22;422;51.280;7.236;2023-10-08T13:29:14;17.80;99.90
871;DHT22;422;51.280;7.236;2023-10-08T13:31:45;18.00;99.90
871;DHT22;422;51.280;7.236;2023-10-08T13:34:13;17.90;57.80
871;DHT22;422;51.280;7.236;2023-10-08T13:36:42;18.00;99.70
871;DHT22;422;51.280;7.236;2023-10-08T13:39:12;18.00;82.30
871;DHT22;422;51.280;7.236;2023-10-08T13:41:44;17.80;73.50
871;DHT22;422;51.280;7.236;2023-10-08T13:44:14;17.80;99.90
871;DHT22;422;51.280;7.236;2023-10-08T13:46:41;17.90;99.90
871;DHT22;422;51.280;7.236;2023-10-08T13:49:16;17.80;93.60
871;DHT22;422;51.280;7.236;2023-10-08T13:51:44;17.90;99.90
871;DHT22;422;51.280;7.236;2023-10-08T13:54:13;18.10;99.90
871;DHT22;422;51.280;7.236;2023-10-08T13:56:40;18.20;99.90
871;DHT22;422;51.280;7.236;2023-10-08T13:59:14;18.30;99.90
871;DHT22;422;51.280;7.236;2023-10-08T14:01:43;18.00;61.00
871;DHT22;422;51.280;7.236;2023-10-08T14:04:12;18.00;99.90
871;DHT22;422;51.280;7.236;2023-10-08T14:06:44;18.10;99.90
871;DHT22;422;51.280;7.236;2023-10-08T14:09:18;18.20;99.90
871;DHT22;422;51.280;7.236;2023-10-08T14:11:48;18.20;99.90
871;DHT22;422;51.280;7.236;2023-10-08T14:14:21;18.20;99.90
871;DHT22;422;51.280;7.236;2023-10-08T14:16:51;18.20;99.90
871;DHT22;422;51.280;7.236;2023-10-08T14:19:20;18.20;99.90
871;DHT22;422;51.280;7.236;2023-10-08T14:21:55;18.20;99.90
871;DHT22;422;51.280;7.236;2023-10-08T14:24:29;18.20;99.90
871;DHT22;422;51.280;7.236;2023-10-08T14:27:01;18.30;99.90
871;DHT22;422;51.280;7.236;2023-10-08T14:29:29;18.30;99.90
871;DHT22;422;51.280;7.236;2023-10-08T14:32:00;18.30;99.90
871;DHT22;422;51.280;7.236;2023-10-08T14:34:28;18.20;99.90
871;DHT22;422;51.280;7.236;2023-10-08T14:37:14;18.20;99.90
871;DHT22;422;51.280;7.236;2023-10-08T14:39:59;18.10;99.90
871;DHT22;422;51.280;7.236;2023-10-08T14:42:44;18.00;99.90
871;DHT22;422;51.280;7.236;2023-10-08T14:45:26;17.90;99.90
871;DHT22;422;51.280;7.236;2023-10-08T14:47:54;17.70;99.90
871;DHT22;422;51.280;7.236;2023-10-08T14:50:22;17.70;99.90
871;DHT22;422;51.280;7.236;2023-10-08T14:52:54;17.70;99.90
871;DHT22;422;51.280;7.236;2023-10-08T14:55:26;17.80;99.90
871;DHT22;422;51.280;7.236;2023-10-08T14:57:53;17.80;99.90
871;DHT22;422;51.280;7.236;2023-10-08T15:00:21;17.90;99.90
871;DHT22;422;51.280;7.236;2023-10-08T15:02:51;17.90;99.90
871;DHT22;422;51.280;7.236;2023-10-08T15:05:20;17.80;99.90
871;DHT22;422;51.280;7.236;2023-10-08T15:07:49;17.80;99.90
871;DHT22;422;51.280;7.236;2023-10-08T15:10:19;17.70;1.00
871;DHT22;422;51.280;7.236;2023-10-08T15:12:47;17.60;1.00
871;DHT22;422;51.280;7.236;2023-10-08T15:15:18;17.60;1.00
871;DHT22;422;51.280;7.236;2023-10-08T15:17:46;17.50;1.00
871;DHT22;422;51.280;7.236;2023-10-08T15:20:15;17.40;1.00
871;DHT22;422;51.280;7.236;2023-10-08T15:22:46;17.30;1.00
871;DHT22;422;51.280;7.236;2023-10-08T15:25:16;17.40;1.00
871;DHT22;422;51.280;7.236;2023-10-08T15:27:46;17.40;1.00
871;DHT22;422;51.280;7.236;2023-10-08T15:30:16;17.40;1.00
871;DHT22;422;51.280;7.236;2023-10-08T15:32:45;17.40;1.00
871;DHT22;422;51.280;7.236;2023-10-08T15:35:15;17.30;1.00
871;DHT22;422;51.280;7.236;2023-10-08T15:37:46;17.30;1.00
871;DHT22;422;51.280;7.236;2023-10-08T15:40:14;17.30;1.00
871;DHT22;422;51.280;7.236;2023-10-08T15:42:49;17.30;1.00
871;DHT22;422;51.280;7.236;2023-10-08T15:45:17;17.30;1.00
871;DHT22;422;51.280;7.236;2023-10-08T15:47:45;17.20;1.00
871;DHT22;422;51.280;7.236;2023-10-08T15:50:13;17.20;1.00
871;DHT22;422;51.280;7.236;2023-10-08T15:52:42;17.00;1.00
871;DHT22;422;51.280;7.236;2023-10-08T15:55:10;17.00;1.00
871;DHT22;422;51.280;7.236;2023-10-08T15:57:38;17.00;1.00
871;DHT22;422;51.280;7.236;2023-10-08T16:00:08;17.00;17.00
871;DHT22;422;51.280;7.236;2023-10-08T16:02:35;17.10;34.10
871;DHT22;422;51.280;7.236;2023-10-08T16:05:03;17.00;22.20
871;DHT22;422;51.280;7.236;2023-10-08T16:07:33;16.90;46.20
871;DHT22;422;51.280;7.236;2023-10-08T16:10:01;16.90;51.00
871;DHT22;422;51.280;7.236;2023-10-08T16:12:28;16.70;30.80
871;DHT22;422;51.280;7.236;2023-10-08T16:14:56;16.70;73.00
871;DHT22;422;51.280;7.236;2023-10-08T16:17:25;16.70;85.30
871;DHT22;422;51.280;7.236;2023-10-08T16:19:57;16.70;75.60
871;DHT22;422;51.280;7.236;2023-10-08T16:22:25;16.60;91.70
871;DHT22;422;51.280;7.236;2023-10-08T16:24:54;16.60;52.80
871;DHT22;422;51.280;7.236;2023-10-08T16:27:21;16.50;69.40
871;DHT22;422;51.280;7.236;2023-10-08T16:29:49;16.40;89.80
871;DHT22;422;51.280;7.236;2023-10-08T16:32:17;16.40;99.80
871;DHT22;422;51.280;7.236;2023-10-08T16:34:46;16.30;99.90
871;DHT22;422;51.280;7.236;2023-10-08T16:37:13;16.20;99.90
871;DHT22;422;51.280;7.236;2023-10-08T16:39:47;16.10;99.90
871;DHT22;422;51.280;7.236;2023-10-08T16:42:16;16.00;99.90
871;DHT22;422;51.280;7.236;2023-10-08T16:44:44;16.00;99.90
871;DHT22;422;51.280;7.236;2023-10-08T16:47:11;15.90;99.90
871;DHT22;422;51.280;7.236;2023-10-08T16:49:44;15.80;99.90
871;DHT22;422;51.280;7.236;2023-10-08T16:52:12;15.80;99.90
871;DHT22;422;51.280;7.236;2023-10-08T16:54:39;15.80;99.90
871;DHT22;422;51.280;7.236;2023-10-08T16:57:07;15.60;99.90
871;DHT22;422;51.280;7.236;2023-10-08T16:59:34;15.60;99.90
871;DHT22;422;51.280;7.236;2023-10-08T17:02:03;15.60;99.90
871;DHT22;422;51.280;7.236;2023-10-08T17:04:32;15.60;99.90
871;DHT22;422;51.280;7.236;2023-10-08T17:07:01;15.50;99.90
871;DHT22;422;51.280;7.236;2023-10-08T17:09:31;15.50;99.90
871;DHT22;422;51.280;7.236;2023-10-08T17:12:01;15.50;99.90